Time;durP1;ratioP1;P1;durP2;ratioP2;P2;SDS_P1;SDS_P2;PMS_P1;PMS_P2;Temp;Humidity;BMP_temperature;BMP_pressure;BME280_temperature;BME280_humidity;BME280_pressure;Samples;Min_cycle;Max_cycle;Signal;HPM_P1;HPM_P2
2021/08/02 00:01:10;;;;;;;7.78;1.58;;;16.60;96.20;;;;;;4969361;28;20249;-72
2021/08/02 00:03:46;;;;;;;6.40;1.20;;;16.60;96.30;;;;;;4969528;28;20209;-73
2021/08/02 00:06:20;;;;;;;4.63;1.20;;;16.50;96.40;;;;;;4971778;28;20205;-74
2021/08/02 00:08:50;;;;;;;5.80;1.63;;;16.50;96.50;;;;;;4971857;28;20222;-73
2021/08/02 00:11:18;;;;;;;6.32;1.55;;;16.50;96.60;;;;;;4969799;28;20618;-74
2021/08/02 00:13:47;;;;;;;7.90;1.60;;;16.50;96.70;;;;;;4972723;28;20217;-72
2021/08/02 00:16:15;;;;;;;3.72;1.20;;;16.50;96.80;;;;;;4969245;28;20662;-75
2021/08/02 00:18:43;;;;;;;4.50;1.20;;;16.50;96.90;;;;;;4971498;28;20221;-74
2021/08/02 00:21:10;;;;;;;6.60;1.40;;;16.60;96.90;;;;;;4971219;28;20662;-73
2021/08/02 00:23:39;;;;;;;6.88;1.55;;;16.60;97.00;;;;;;4971131;28;20217;-74
2021/08/02 00:26:07;;;;;;;4.70;1.40;;;16.50;97.00;;;;;;4970513;28;20569;-73
2021/08/02 00:28:34;;;;;;;11.00;1.50;;;16.60;97.00;;;;;;4970752;28;20641;-73
2021/08/02 00:31:02;;;;;;;7.32;1.30;;;16.60;97.00;;;;;;4972652;28;20737;-72
2021/08/02 00:33:29;;;;;;;4.35;1.20;;;16.60;97.00;;;;;;4970176;28;20209;-74
2021/08/02 00:36:04;;;;;;;2.65;1.05;;;16.60;97.00;;;;;;4971661;28;20725;-74
2021/08/02 00:38:35;;;;;;;6.05;1.35;;;16.50;97.00;;;;;;4970523;28;20253;-74
2021/08/02 00:41:21;;;;;;;6.90;1.33;;;16.50;97.00;;;;;;4971083;28;20205;-73
2021/08/02 00:44:24;;;;;;;5.30;1.58;;;16.50;97.00;;;;;;4969673;28;20662;-73
2021/08/02 00:46:54;;;;;;;6.70;1.30;;;16.50;97.00;;;;;;4969394;28;20209;-74
2021/08/02 00:49:26;;;;;;;5.20;1.35;;;16.40;97.00;;;;;;4969823;28;20208;-75
2021/08/02 00:51:56;;;;;;;5.75;1.42;;;16.40;97.10;;;;;;4970137;28;20206;-74
2021/08/02 00:54:26;;;;;;;5.88;1.63;;;16.30;97.10;;;;;;4970748;28;20216;-74
2021/08/02 00:56:58;;;;;;;6.07;1.50;;;16.30;97.20;;;;;;4970953;28;20232;-74
2021/08/02 00:59:27;;;;;;;3.47;1.50;;;16.20;97.20;;;;;;4968597;28;20213;-72
2021/08/02 01:01:55;;;;;;;4.40;1.40;;;16.20;97.30;;;;;;4971958;28;20568;-71
2021/08/02 01:04:24;;;;;;;5.43;1.55;;;16.20;97.30;;;;;;4968810;28;20728;-73
2021/08/02 01:06:52;;;;;;;12.05;1.80;;;16.20;97.40;;;;;;4970233;28;20221;-73
2021/08/02 01:09:22;;;;;;;9.85;1.83;;;16.20;97.50;;;;;;4969372;28;20758;-72
2021/08/02 01:11:52;;;;;;;5.78;1.67;;;16.10;97.60;;;;;;4970674;28;20218;-73
2021/08/02 01:14:21;;;;;;;3.97;1.70;;;16.10;97.60;;;;;;4970870;28;20213;-75
2021/08/02 01:16:51;;;;;;;5.13;1.67;;;16.00;97.70;;;;;;4977079;28;20766;-74
2021/08/02 01:19:21;;;;;;;7.05;1.70;;;16.00;97.80;;;;;;4972096;28;20229;-74
2021/08/02 01:21:58;;;;;;;5.95;1.50;;;16.00;97.80;;;;;;4973944;28;20246;-74
2021/08/02 01:24:27;;;;;;;6.82;1.77;;;16.00;97.90;;;;;;4973596;28;20201;-73
2021/08/02 01:27:25;;;;;;;5.30;1.40;;;15.90;98.00;;;;;;4973970;28;20205;-73
2021/08/02 01:30:19;;;;;;;6.85;1.42;;;15.90;98.10;;;;;;4991512;28;20300;-74
2021/08/02 01:32:52;;;;;;;8.63;1.77;;;15.80;98.10;;;;;;4972471;28;20194;-73
2021/08/02 01:35:19;;;;;;;4.00;1.70;;;15.80;98.20;;;;;;4973138;28;20285;-74
2021/08/02 01:37:48;;;;;;;8.55;1.70;;;15.80;98.30;;;;;;4973784;28;20205;-73
2021/08/02 01:40:18;;;;;;;8.10;2.60;;;15.80;98.40;;;;;;4972749;28;20618;-73
2021/08/02 01:42:45;;;;;;;4.57;1.88;;;15.70;98.40;;;;;;4972069;28;20209;-75
2021/08/02 01:45:18;;;;;;;9.30;2.08;;;15.70;98.60;;;;;;4970161;28;20206;-74
2021/08/02 01:47:55;;;;;;;4.45;1.63;;;15.70;98.70;;;;;;4972179;28;20234;-73
2021/08/02 01:50:38;;;;;;;8.65;1.98;;;15.60;98.80;;;;;;4971516;28;20197;-73
2021/08/02 01:53:15;;;;;;;7.18;1.98;;;15.60;98.80;;;;;;4971558;28;20572;-74
2021/08/02 01:55:51;;;;;;;9.13;2.53;;;15.60;98.90;;;;;;4973439;28;20205;-74
2021/08/02 01:58:18;;;;;;;7.68;1.98;;;15.50;99.00;;;;;;4972896;28;20658;-73
2021/08/02 02:00:58;;;;;;;5.93;1.95;;;15.50;99.10;;;;;;4974643;28;20556;-72
2021/08/02 02:03:29;;;;;;;8.05;2.67;;;15.40;99.20;;;;;;4971731;28;20213;-73
2021/08/02 02:06:05;;;;;;;11.68;3.70;;;15.40;99.30;;;;;;4973305;28;20202;-73
2021/08/02 02:08:36;;;;;;;8.20;2.85;;;15.40;99.30;;;;;;4972077;28;20701;-72
2021/08/02 02:11:14;;;;;;;9.52;2.88;;;15.40;99.40;;;;;;4971560;28;20578;-73
2021/08/02 02:13:52;;;;;;;7.63;2.72;;;15.30;99.50;;;;;;4973341;28;20233;-73
2021/08/02 02:16:21;;;;;;;9.70;2.70;;;15.30;99.50;;;;;;4970904;28;20212;-73
2021/08/02 02:18:54;;;;;;;10.02;3.10;;;15.30;99.60;;;;;;4974251;28;20229;-72
2021/08/02 02:21:26;;;;;;;8.43;2.10;;;15.30;99.70;;;;;;4973711;28;20202;-72
2021/08/02 02:23:58;;;;;;;5.38;2.00;;;15.30;99.80;;;;;;4972958;28;20700;-74
2021/08/02 02:26:31;;;;;;;5.47;2.08;;;15.20;99.90;;;;;;4972712;28;20205;-72
2021/08/02 02:28:59;;;;;;;11.20;3.10;;;15.20;99.90;;;;;;4973481;28;20220;-74
2021/08/02 02:31:27;;;;;;;7.50;1.90;;;15.20;99.90;;;;;;4972064;28;20210;-74
2021/08/02 02:33:57;;;;;;;8.80;2.45;;;15.20;99.90;;;;;;4971819;28;20219;-74
2021/08/02 02:36:26;;;;;;;6.85;2.40;;;15.20;99.90;;;;;;4971998;28;20670;-73
2021/08/02 02:38:54;;;;;;;13.60;2.30;;;15.20;99.90;;;;;;4972619;28;20249;-74
2021/08/02 02:41:24;;;;;;;8.52;1.80;;;15.10;99.90;;;;;;4971712;28;20205;-72
2021/08/02 02:43:55;;;;;;;6.72;2.05;;;15.20;99.90;;;;;;4972407;28;20233;-75
2021/08/02 02:46:25;;;;;;;7.18;1.90;;;15.10;99.90;;;;;;4972448;28;20210;-70
2021/08/02 02:48:55;;;;;;;13.30;2.40;;;15.10;99.90;;;;;;4972557;28;20323;-72
2021/08/02 02:51:26;;;;;;;6.63;1.83;;;15.10;99.90;;;;;;4970623;28;20670;-73
2021/08/02 02:53:54;;;;;;;5.07;2.17;;;15.00;99.90;;;;;;4971654;28;20198;-71
2021/08/02 02:56:21;;;;;;;8.52;2.42;;;15.00;99.90;;;;;;4972879;28;20689;-73
2021/08/02 02:58:49;;;;;;;11.43;2.00;;;15.00;99.90;;;;;;4972672;28;20194;-75
2021/08/02 03:01:20;;;;;;;14.68;2.50;;;15.00;99.90;;;;;;4976240;28;20697;-71
2021/08/02 03:03:51;;;;;;;12.27;2.40;;;15.00;99.90;;;;;;4970298;28;20241;-74
2021/08/02 03:06:20;;;;;;;9.88;2.25;;;15.00;99.90;;;;;;4970636;28;20210;-73
2021/08/02 03:08:49;;;;;;;10.65;2.20;;;14.90;99.90;;;;;;4972358;28;20222;-72
2021/08/02 03:11:18;;;;;;;10.73;2.42;;;14.90;99.90;;;;;;4970932;28;20301;-74
2021/08/02 03:13:45;;;;;;;7.40;1.90;;;14.90;99.90;;;;;;4971625;28;20210;-74
2021/08/02 03:16:12;;;;;;;9.98;2.47;;;14.90;99.90;;;;;;4972113;28;20202;-71
2021/08/02 03:18:40;;;;;;;9.77;2.60;;;14.80;99.90;;;;;;4972050;28;20683;-72
2021/08/02 03:21:07;;;;;;;9.38;2.03;;;14.90;99.90;;;;;;4971303;28;20202;-73
2021/08/02 03:23:41;;;;;;;8.43;2.25;;;14.80;99.90;;;;;;4971153;28;20264;-73
2021/08/02 03:26:12;;;;;;;8.32;2.30;;;14.80;99.90;;;;;;4972178;28;20205;-72
2021/08/02 03:28:47;;;;;;;4.20;1.90;;;14.80;99.90;;;;;;4972180;28;20229;-72
2021/08/02 03:31:20;;;;;;;11.32;2.10;;;14.80;99.90;;;;;;4971271;28;20205;-71
2021/08/02 03:33:50;;;;;;;5.40;1.95;;;14.80;99.90;;;;;;4972045;28;20206;-72
2021/08/02 03:36:18;;;;;;;5.28;2.00;;;14.80;99.90;;;;;;4971784;28;20578;-73
2021/08/02 03:38:48;;;;;;;10.15;2.40;;;14.80;99.90;;;;;;4971294;28;20205;-73
2021/08/02 03:41:16;;;;;;;6.05;2.28;;;14.70;99.90;;;;;;4971313;28;20205;-72
2021/08/02 03:43:44;;;;;;;12.70;2.40;;;14.70;99.90;;;;;;4971975;28;20214;-72
2021/08/02 03:46:13;;;;;;;13.88;5.65;;;14.70;99.90;;;;;;4971428;28;20225;-74
2021/08/02 03:48:40;;;;;;;11.02;5.90;;;14.70;99.90;;;;;;4970638;28;20225;-73
2021/08/02 03:51:09;;;;;;;10.73;3.25;;;14.70;99.90;;;;;;4970470;28;20216;-75
2021/08/02 03:53:41;;;;;;;5.65;2.13;;;14.70;99.90;;;;;;4971532;28;20689;-73
2021/08/02 03:56:09;;;;;;;8.10;2.15;;;14.60;99.90;;;;;;4972005;28;20213;-72
2021/08/02 03:58:37;;;;;;;8.10;2.45;;;14.60;99.90;;;;;;4970486;28;20277;-73
2021/08/02 04:01:04;;;;;;;9.30;2.03;;;14.60;99.90;;;;;;4971409;28;20213;-74
2021/08/02 04:03:30;;;;;;;12.77;2.38;;;14.60;99.90;;;;;;4970257;28;20197;-72
2021/08/02 04:05:59;;;;;;;7.07;2.75;;;14.60;99.90;;;;;;4972741;28;20205;-73
2021/08/02 04:08:28;;;;;;;9.48;2.60;;;14.60;99.90;;;;;;4971642;28;20217;-71
2021/08/02 04:10:55;;;;;;;9.10;2.30;;;14.60;99.90;;;;;;4970500;28;20210;-72
2021/08/02 04:13:22;;;;;;;8.35;2.50;;;14.60;99.90;;;;;;4971587;28;20206;-73
2021/08/02 04:15:49;;;;;;;8.90;2.40;;;14.60;99.90;;;;;;4970504;28;20721;-74
2021/08/02 04:18:16;;;;;;;13.45;2.50;;;14.60;99.90;;;;;;4970534;28;20938;-74
2021/08/02 04:20:43;;;;;;;14.18;5.05;;;14.60;99.90;;;;;;4972832;28;20201;-72
2021/08/02 04:23:11;;;;;;;12.52;3.20;;;14.60;99.90;;;;;;4972665;28;20213;-72
2021/08/02 04:25:40;;;;;;;7.43;2.40;;;14.60;99.90;;;;;;4969601;28;20236;-73
2021/08/02 04:28:07;;;;;;;6.90;2.22;;;14.60;99.90;;;;;;4970610;28;20225;-73
2021/08/02 04:30:34;;;;;;;9.45;2.58;;;14.70;99.90;;;;;;4970276;28;20209;-74
2021/08/02 04:33:00;;;;;;;10.27;2.60;;;14.70;99.90;;;;;;4972194;28;20564;-72
2021/08/02 04:35:27;;;;;;;7.47;2.72;;;14.70;99.90;;;;;;4970920;28;20210;-72
2021/08/02 04:37:54;;;;;;;6.93;2.50;;;14.70;99.90;;;;;;4971352;28;20232;-73
2021/08/02 04:40:21;;;;;;;13.65;3.20;;;14.70;99.90;;;;;;4970624;28;20204;-73
2021/08/02 04:42:49;;;;;;;7.72;3.05;;;14.80;99.90;;;;;;4970850;28;20689;-73
2021/08/02 04:45:16;;;;;;;7.00;2.30;;;14.80;99.90;;;;;;4969882;28;20206;-72
2021/08/02 04:47:43;;;;;;;8.38;2.75;;;14.80;99.90;;;;;;4970725;28;20205;-73
2021/08/02 04:50:11;;;;;;;7.22;2.10;;;14.90;99.90;;;;;;4972086;28;20706;-73
2021/08/02 04:52:38;;;;;;;7.63;2.42;;;14.90;99.90;;;;;;4973384;28;20205;-75
2021/08/02 04:55:06;;;;;;;7.60;2.13;;;14.90;99.90;;;;;;4976167;28;20228;-72
2021/08/02 04:57:33;;;;;;;10.90;2.08;;;15.00;99.90;;;;;;4978248;28;20216;-73
2021/08/02 05:00:01;;;;;;;7.85;2.30;;;15.00;99.90;;;;;;4979113;28;20232;-74
2021/08/02 05:02:28;;;;;;;7.43;2.35;;;15.00;99.90;;;;;;4976705;28;20552;-72
2021/08/02 05:04:55;;;;;;;4.47;1.90;;;15.10;99.90;;;;;;4976186;28;20202;-71
2021/08/02 05:07:22;;;;;;;10.10;2.33;;;15.10;99.90;;;;;;4976084;28;20216;-72
2021/08/02 05:09:49;;;;;;;8.55;2.00;;;15.20;99.90;;;;;;4976919;28;20567;-70
2021/08/02 05:12:17;;;;;;;8.48;1.90;;;15.20;99.90;;;;;;4977165;28;20205;-71
2021/08/02 05:14:44;;;;;;;8.98;2.28;;;15.20;99.90;;;;;;4976859;28;20202;-72
2021/08/02 05:17:12;;;;;;;6.75;1.98;;;15.30;99.90;;;;;;4976187;28;20209;-72
2021/08/02 05:19:39;;;;;;;9.85;1.90;;;15.40;99.90;;;;;;4976316;28;20226;-73
2021/08/02 05:22:06;;;;;;;8.73;2.20;;;15.40;99.90;;;;;;4976582;28;20214;-71
2021/08/02 05:24:33;;;;;;;9.45;2.40;;;15.40;99.90;;;;;;4977314;28;20612;-73
2021/08/02 05:27:00;;;;;;;10.35;2.50;;;15.40;99.90;;;;;;4975074;28;20206;-73
2021/08/02 05:29:27;;;;;;;7.70;2.53;;;15.50;99.90;;;;;;4976959;28;20612;-71
2021/08/02 05:31:54;;;;;;;15.15;2.58;;;15.50;99.90;;;;;;4976922;28;20256;-71
2021/08/02 05:34:22;;;;;;;8.38;2.00;;;15.50;99.90;;;;;;4976153;28;20578;-70
2021/08/02 05:36:49;;;;;;;11.43;2.78;;;15.60;99.90;;;;;;4976041;28;20640;-71
2021/08/02 05:39:15;;;;;;;14.48;3.47;;;15.60;99.90;;;;;;4974728;28;20301;-71
2021/08/02 05:41:42;;;;;;;16.15;3.00;;;15.60;99.90;;;;;;4975207;28;20573;-71
2021/08/02 05:44:09;;;;;;;16.75;3.28;;;15.70;99.90;;;;;;4976953;28;20667;-71
2021/08/02 05:46:36;;;;;;;12.20;3.20;;;15.70;99.90;;;;;;4974684;28;20703;-71
2021/08/02 05:49:03;;;;;;;11.90;2.95;;;15.80;99.90;;;;;;4975907;28;20260;-73
2021/08/02 05:51:31;;;;;;;14.27;2.95;;;15.80;99.90;;;;;;4976187;28;20288;-73
2021/08/02 05:53:58;;;;;;;10.77;2.90;;;15.80;99.90;;;;;;4976814;28;20260;-72
2021/08/02 05:56:24;;;;;;;12.30;2.95;;;15.80;99.90;;;;;;4974622;28;20244;-71
2021/08/02 05:58:51;;;;;;;9.60;2.70;;;15.90;99.90;;;;;;4973519;28;20697;-71
2021/08/02 06:01:18;;;;;;;7.93;2.78;;;15.90;99.90;;;;;;4974423;28;20209;-71
2021/08/02 06:03:45;;;;;;;10.93;2.95;;;15.90;99.90;;;;;;4971711;28;20209;-74
2021/08/02 06:06:12;;;;;;;20.65;10.45;;;16.00;99.90;;;;;;4972714;28;20212;-73
2021/08/02 06:08:40;;;;;;;11.98;4.22;;;16.00;99.90;;;;;;4973425;28;20619;-72
2021/08/02 06:11:08;;;;;;;9.75;3.40;;;16.10;99.90;;;;;;4972886;28;20206;-73
2021/08/02 06:13:35;;;;;;;10.05;3.03;;;16.10;99.90;;;;;;4971012;28;20985;-72
2021/08/02 06:16:02;;;;;;;9.80;2.80;;;16.20;99.90;;;;;;4972434;28;20213;-72
2021/08/02 06:18:29;;;;;;;14.23;2.70;;;16.20;99.90;;;;;;4971040;28;20305;-70
2021/08/02 06:20:55;;;;;;;5.57;1.92;;;16.20;99.90;;;;;;4971927;28;20202;-70
2021/08/02 06:23:22;;;;;;;9.32;2.45;;;16.30;99.90;;;;;;4972591;28;20202;-71
2021/08/02 06:25:51;;;;;;;10.25;4.28;;;16.30;99.90;;;;;;4972048;28;20221;-70
2021/08/02 06:28:18;;;;;;;10.38;2.63;;;16.30;99.90;;;;;;4971383;28;20202;-71
2021/08/02 06:30:44;;;;;;;7.85;2.55;;;16.40;99.90;;;;;;4970850;28;20689;-70
2021/08/02 06:33:11;;;;;;;9.10;2.25;;;16.40;99.90;;;;;;4976771;28;20202;-70
2021/08/02 06:35:38;;;;;;;8.18;2.00;;;16.50;99.90;;;;;;4973489;28;20276;-72
2021/08/02 06:38:05;;;;;;;6.25;1.80;;;16.50;99.90;;;;;;4974845;28;20812;-70
2021/08/02 06:40:32;;;;;;;6.57;1.42;;;16.50;99.90;;;;;;4972219;28;20642;-71
2021/08/02 06:43:00;;;;;;;11.60;2.13;;;16.60;99.90;;;;;;4972427;28;20209;-72
2021/08/02 06:45:30;;;;;;;4.30;1.42;;;16.60;99.90;;;;;;4971487;28;20217;-71
2021/08/02 06:47:57;;;;;;;4.47;1.60;;;16.70;99.90;;;;;;4972872;28;20205;-72
2021/08/02 06:50:25;;;;;;;4.72;1.80;;;16.70;99.90;;;;;;4972297;28;20225;-72
2021/08/02 06:52:52;;;;;;;4.32;1.48;;;16.80;99.90;;;;;;4971636;28;20682;-73
2021/08/02 06:55:21;;;;;;;3.42;1.33;;;16.90;99.90;;;;;;4972326;28;20301;-75
2021/08/02 06:57:48;;;;;;;6.80;1.40;;;16.90;99.90;;;;;;4973936;28;20222;-74
2021/08/02 07:00:17;;;;;;;4.65;1.50;;;17.00;99.90;;;;;;4972294;28;20210;-73
2021/08/02 07:02:44;;;;;;;4.05;1.40;;;17.10;99.80;;;;;;4972106;28;20202;-74
2021/08/02 07:05:11;;;;;;;37.17;4.57;;;17.20;99.30;;;;;;4970773;28;20206;-73
2021/08/02 07:07:39;;;;;;;8.80;1.42;;;17.30;99.00;;;;;;4972426;28;20279;-72
2021/08/02 07:10:07;;;;;;;6.18;1.40;;;17.30;98.60;;;;;;4972976;28;20705;-73
2021/08/02 07:12:34;;;;;;;4.57;1.45;;;17.40;98.20;;;;;;4972340;28;20202;-72
2021/08/02 07:15:01;;;;;;;3.97;1.30;;;17.50;97.80;;;;;;4973268;28;20206;-73
2021/08/02 07:17:29;;;;;;;7.75;1.60;;;17.60;97.50;;;;;;4967330;28;20602;-71
2021/08/02 07:19:56;;;;;;;7.00;1.30;;;17.60;97.00;;;;;;4972565;28;20206;-72
2021/08/02 07:22:23;;;;;;;3.00;1.05;;;17.70;96.60;;;;;;4970986;28;20583;-72
2021/08/02 07:24:50;;;;;;;8.18;1.73;;;17.70;96.30;;;;;;4972008;28;20222;-73
2021/08/02 07:27:17;;;;;;;5.60;1.90;;;17.90;96.10;;;;;;4971742;28;20210;-71
2021/08/02 07:29:44;;;;;;;4.10;1.50;;;17.90;95.90;;;;;;4970444;28;20229;-72
2021/08/02 07:32:10;;;;;;;7.03;1.40;;;18.00;95.80;;;;;;4971479;28;20272;-72
2021/08/02 07:34:39;;;;;;;4.22;1.70;;;18.00;95.80;;;;;;4970170;28;20292;-72
2021/08/02 07:37:06;;;;;;;5.00;1.50;;;18.10;96.00;;;;;;4971766;28;20260;-72
2021/08/02 07:39:33;;;;;;;7.22;1.77;;;18.20;95.50;;;;;;4971791;28;20202;-72
2021/08/02 07:42:00;;;;;;;10.80;1.77;;;18.20;95.40;;;;;;4972751;28;20577;-72
2021/08/02 07:44:26;;;;;;;7.28;1.75;;;18.30;95.10;;;;;;4974325;28;20210;-72
2021/08/02 07:46:53;;;;;;;8.07;1.60;;;18.40;94.90;;;;;;4970791;28;20206;-73
2021/08/02 07:49:20;;;;;;;6.03;1.40;;;18.40;94.60;;;;;;4968719;28;20233;-72
2021/08/02 07:51:48;;;;;;;6.20;1.70;;;18.50;94.30;;;;;;4973025;28;20206;-72
2021/08/02 07:54:15;;;;;;;7.10;1.40;;;18.60;94.40;;;;;;4970684;28;20214;-71
2021/08/02 07:56:42;;;;;;;3.60;1.67;;;18.60;93.70;;;;;;4972960;28;20201;-70
2021/08/02 07:59:09;;;;;;;8.00;1.42;;;18.70;93.40;;;;;;4971050;28;20237;-72
2021/08/02 08:01:36;;;;;;;4.13;1.30;;;18.80;93.20;;;;;;4970749;28;20212;-70
2021/08/02 08:04:03;;;;;;;4.57;1.20;;;18.90;93.10;;;;;;4970718;28;20209;-71
2021/08/02 08:06:30;;;;;;;6.47;1.17;;;19.00;92.80;;;;;;4972276;28;20224;-72
2021/08/02 08:08:58;;;;;;;9.07;1.70;;;19.10;92.30;;;;;;4971223;28;20210;-72
2021/08/02 08:11:25;;;;;;;4.10;1.20;;;19.20;91.90;;;;;;4971205;28;20209;-72
2021/08/02 08:13:52;;;;;;;11.52;1.73;;;19.30;91.50;;;;;;4970924;28;20252;-72
2021/08/02 08:16:19;;;;;;;6.22;1.45;;;19.30;91.30;;;;;;4970567;28;20198;-71
2021/08/02 08:18:46;;;;;;;3.63;0.98;;;19.40;91.00;;;;;;4970221;28;20609;-71
2021/08/02 08:21:12;;;;;;;5.85;1.42;;;19.50;90.50;;;;;;4972677;28;20209;-72
2021/08/02 08:23:39;;;;;;;5.75;1.33;;;19.50;90.00;;;;;;4974180;28;20213;-71
2021/08/02 08:26:08;;;;;;;6.63;1.80;;;19.50;90.00;;;;;;4971902;28;20201;-71
2021/08/02 08:28:34;;;;;;;6.80;1.60;;;19.70;90.10;;;;;;4971020;28;20202;-71
2021/08/02 08:31:01;;;;;;;9.30;2.63;;;19.90;90.30;;;;;;4970040;28;20214;-73
2021/08/02 08:33:28;;;;;;;3.70;1.30;;;20.30;90.40;;;;;;4969488;28;20206;-71
2021/08/02 08:35:56;;;;;;;3.63;1.00;;;20.90;89.10;;;;;;4970207;28;20570;-72
2021/08/02 08:38:23;;;;;;;3.65;1.15;;;21.60;84.50;;;;;;4969817;28;20235;-71
2021/08/02 08:40:52;;;;;;;4.40;0.90;;;22.20;81.30;;;;;;4970811;28;20206;-71
2021/08/02 08:43:21;;;;;;;2.55;0.80;;;22.90;78.00;;;;;;4972149;28;20238;-73
2021/08/02 08:45:48;;;;;;;5.75;1.40;;;23.60;74.80;;;;;;4972447;28;20621;-71
2021/08/02 08:48:15;;;;;;;5.10;1.15;;;24.30;71.90;;;;;;4970663;28;20228;-71
2021/08/02 08:50:43;;;;;;;3.13;0.90;;;25.00;68.60;;;;;;4970753;28;20221;-71
2021/08/02 08:53:11;;;;;;;3.63;1.17;;;25.50;65.90;;;;;;4970418;28;20226;-69
2021/08/02 08:55:42;;;;;;;8.38;1.00;;;25.90;63.70;;;;;;4971020;28;20568;-70
2021/08/02 08:58:09;;;;;;;4.95;1.35;;;26.10;61.90;;;;;;4970378;28;20288;-69
2021/08/02 09:00:37;;;;;;;6.82;1.23;;;26.10;60.50;;;;;;4969602;28;20204;-71
2021/08/02 09:03:11;;;;;;;7.53;1.35;;;25.80;60.40;;;;;;4971994;28;20214;-70
2021/08/02 09:05:38;;;;;;;4.05;1.35;;;25.50;60.60;;;;;;4965997;28;20205;-70
2021/08/02 09:08:06;;;;;;;5.13;1.20;;;25.30;62.20;;;;;;4966128;28;20257;-71
2021/08/02 09:10:34;;;;;;;6.20;1.40;;;25.30;63.50;;;;;;4967671;28;20221;-70
2021/08/02 09:13:04;;;;;;;6.57;1.10;;;25.40;64.70;;;;;;4968118;28;20205;-71
2021/08/02 09:15:33;;;;;;;4.22;1.17;;;25.80;64.40;;;;;;4968952;28;20217;-68
2021/08/02 09:18:03;;;;;;;5.93;1.10;;;26.00;62.60;;;;;;4970349;28;20716;-72
2021/08/02 09:20:30;;;;;;;7.20;1.60;;;25.90;61.40;;;;;;4970208;28;20202;-74
2021/08/02 09:23:06;;;;;;;4.55;1.38;;;25.70;60.90;;;;;;4968398;28;20213;-71
2021/08/02 09:25:33;;;;;;;2.50;1.05;;;25.60;60.40;;;;;;4973731;28;20216;-69
2021/08/02 09:28:12;;;;;;;7.88;1.30;;;25.50;60.30;;;;;;4969885;28;20657;-72
2021/08/02 09:30:39;;;;;;;7.38;1.55;;;25.50;60.50;;;;;;4969619;28;20681;-74
2021/08/02 09:33:08;;;;;;;4.35;1.23;;;25.60;60.70;;;;;;4969085;28;20213;-72
2021/08/02 09:35:39;;;;;;;3.65;1.10;;;25.70;61.20;;;;;;4969850;28;20198;-72
2021/08/02 09:38:07;;;;;;;5.00;1.23;;;25.80;60.00;;;;;;4971314;28;20209;-73
2021/08/02 09:40:40;;;;;;;3.83;0.80;;;26.00;59.60;;;;;;4973002;28;20212;-73
2021/08/02 09:43:06;;;;;;;6.55;1.42;;;26.10;59.10;;;;;;4973838;28;20220;-73
2021/08/02 09:45:41;;;;;;;4.10;0.98;;;26.20;58.60;;;;;;4972924;28;20264;-72
2021/08/02 09:48:09;;;;;;;4.00;1.05;;;26.20;58.60;;;;;;4974145;28;20200;-77
2021/08/02 09:50:37;;;;;;;3.83;1.10;;;26.40;57.60;;;;;;4973506;28;20212;-72
2021/08/02 09:53:04;;;;;;;4.43;1.00;;;26.30;56.30;;;;;;4975454;28;20614;-76
2021/08/02 09:55:30;;;;;;;4.50;1.25;;;26.10;56.10;;;;;;4973686;28;20280;-75
2021/08/02 09:57:57;;;;;;;9.68;1.27;;;26.00;56.10;;;;;;4977896;28;20679;-72
2021/08/02 10:00:24;;;;;;;4.78;1.30;;;25.80;55.70;;;;;;4972517;28;20216;-72
2021/08/02 10:02:52;;;;;;;7.53;1.30;;;25.70;56.00;;;;;;4972118;28;20216;-71
2021/08/02 10:05:21;;;;;;;3.20;1.10;;;25.80;55.80;;;;;;4973648;28;20267;-72
2021/08/02 10:07:49;;;;;;;3.42;1.00;;;26.30;54.90;;;;;;4973656;28;20293;-71
2021/08/02 10:10:18;;;;;;;3.90;1.10;;;27.30;54.00;;;;;;4975563;28;20213;-72
2021/08/02 10:12:46;;;;;;;4.45;1.13;;;28.40;51.70;;;;;;4972896;28;20280;-72
2021/08/02 10:15:15;;;;;;;5.68;1.00;;;29.20;49.30;;;;;;4976105;28;20216;-72
2021/08/02 10:17:47;;;;;;;9.20;1.00;;;29.90;47.70;;;;;;4973212;28;20701;-74
2021/08/02 10:20:23;;;;;;;8.40;1.17;;;30.60;46.40;;;;;;4971595;28;20696;-74
2021/08/02 10:22:51;;;;;;;4.80;0.90;;;31.30;44.30;;;;;;4973296;28;20209;-72
2021/08/02 10:25:19;;;;;;;3.88;1.00;;;31.80;42.90;;;;;;4974217;28;20197;-72
2021/08/02 10:27:45;;;;;;;2.80;0.77;;;32.30;41.90;;;;;;4971393;28;20214;-72
2021/08/02 10:30:26;;;;;;;5.18;0.93;;;32.60;42.00;;;;;;4970583;28;20213;-73
2021/08/02 10:32:57;;;;;;;3.33;0.80;;;32.90;41.20;;;;;;4971659;28;20217;-73
2021/08/02 10:35:43;;;;;;;4.20;1.10;;;32.90;40.40;;;;;;4972730;28;20284;-71
2021/08/02 10:38:12;;;;;;;2.17;0.80;;;32.70;40.10;;;;;;4972384;28;20569;-71
2021/08/02 10:40:53;;;;;;;3.70;0.82;;;33.00;39.30;;;;;;4971685;28;20208;-72
2021/08/02 10:43:34;;;;;;;5.65;0.90;;;33.10;38.80;;;;;;4970380;28;20202;-76
2021/08/02 10:46:15;;;;;;;3.60;0.73;;;33.00;38.40;;;;;;4971199;28;20693;-71
2021/08/02 10:48:42;;;;;;;5.00;1.25;;;32.50;38.20;;;;;;4968884;28;20653;-72
2021/08/02 10:51:13;;;;;;;5.35;0.88;;;31.90;38.70;;;;;;4964998;28;20813;-73
2021/08/02 10:53:40;;;;;;;3.45;1.00;;;31.40;38.60;;;;;;4969590;28;20216;-71
2021/08/02 10:56:08;;;;;;;3.83;0.90;;;30.80;38.90;;;;;;4972068;28;20219;-72
2021/08/02 10:58:38;;;;;;;4.43;1.10;;;30.40;40.00;;;;;;4970027;28;20213;-72
2021/08/02 11:01:06;;;;;;;3.63;1.17;;;29.90;41.00;;;;;;4973401;28;20232;-72
2021/08/02 11:03:36;;;;;;;4.53;1.25;;;29.60;41.70;;;;;;4972030;28;20205;-74
2021/08/02 11:06:07;;;;;;;3.78;0.93;;;29.40;42.50;;;;;;4970265;28;20212;-71
2021/08/02 11:08:44;;;;;;;5.18;1.27;;;29.20;42.80;;;;;;4971966;28;20304;-72
2021/08/02 11:11:12;;;;;;;4.65;1.35;;;29.10;42.90;;;;;;4973430;28;20229;-73
2021/08/02 11:13:39;;;;;;;2.38;0.88;;;29.00;43.20;;;;;;4971140;28;20221;-74
2021/08/02 11:16:10;;;;;;;3.10;1.08;;;28.90;43.20;;;;;;4971206;28;21134;-71
2021/08/02 11:18:37;;;;;;;3.20;0.95;;;28.90;43.40;;;;;;4974366;28;20233;-71
2021/08/02 11:21:04;;;;;;;3.42;1.13;;;28.80;42.90;;;;;;4968104;28;20237;-73
2021/08/02 11:23:32;;;;;;;5.20;1.35;;;28.70;42.90;;;;;;4973324;28;20221;-73
2021/08/02 11:26:11;;;;;;;5.07;0.82;;;28.60;43.70;;;;;;4971204;28;20623;-72
2021/08/02 11:28:42;;;;;;;5.03;0.90;;;28.50;44.00;;;;;;4974652;28;20209;-73
2021/08/02 11:31:10;;;;;;;5.30;1.13;;;28.40;45.00;;;;;;4971634;28;20303;-71
2021/08/02 11:33:38;;;;;;;4.28;0.98;;;28.30;45.40;;;;;;4973206;28;20632;-72
2021/08/02 11:36:06;;;;;;;3.13;1.00;;;28.20;45.40;;;;;;4971691;28;20212;-74
2021/08/02 11:38:37;;;;;;;5.75;1.00;;;28.20;45.30;;;;;;4970904;28;20209;-74
2021/08/02 11:41:04;;;;;;;2.10;0.88;;;28.10;45.50;;;;;;4969696;28;20205;-73
2021/08/02 11:43:39;;;;;;;3.03;1.00;;;28.00;45.60;;;;;;4971201;28;20197;-73
2021/08/02 11:46:06;;;;;;;4.90;0.82;;;27.90;46.20;;;;;;4973248;28;20259;-71
2021/08/02 11:48:33;;;;;;;6.40;1.40;;;27.90;47.40;;;;;;4972703;28;20202;-72
2021/08/02 11:51:00;;;;;;;3.45;0.88;;;28.10;47.00;;;;;;4969818;28;21015;-74
2021/08/02 11:53:34;;;;;;;3.58;1.10;;;28.30;46.20;;;;;;4967482;28;20209;-74
2021/08/02 11:56:01;;;;;;;3.40;1.00;;;28.40;45.80;;;;;;4967135;28;20205;-71
2021/08/02 11:58:40;;;;;;;3.72;1.00;;;28.50;46.60;;;;;;4969222;28;20201;-72
2021/08/02 12:01:07;;;;;;;3.65;0.80;;;28.40;45.40;;;;;;4969478;28;20212;-73
2021/08/02 12:03:35;;;;;;;3.25;0.80;;;28.40;44.90;;;;;;4971104;28;20227;-73
2021/08/02 12:06:03;;;;;;;6.35;1.05;;;28.40;44.30;;;;;;4969050;28;20201;-73
2021/08/02 12:08:30;;;;;;;3.50;1.00;;;28.20;43.90;;;;;;4968959;28;20213;-73
2021/08/02 12:10:58;;;;;;;5.07;1.05;;;28.20;44.10;;;;;;4966398;28;20231;-71
2021/08/02 12:13:25;;;;;;;7.53;0.93;;;28.40;44.30;;;;;;4969035;28;20209;-73
2021/08/02 12:15:56;;;;;;;4.15;1.00;;;28.40;44.30;;;;;;4971941;28;20569;-72
2021/08/02 12:18:25;;;;;;;33.47;8.80;;;28.70;44.50;;;;;;4970483;28;20240;-72
2021/08/02 12:20:53;;;;;;;7.22;2.10;;;29.10;43.70;;;;;;4971688;28;20201;-73
2021/08/02 12:23:25;;;;;;;6.68;1.30;;;29.10;43.10;;;;;;4969969;28;20260;-73
2021/08/02 12:25:51;;;;;;;5.20;1.35;;;29.00;43.20;;;;;;4970075;28;20197;-71
2021/08/02 12:28:18;;;;;;;3.33;1.00;;;28.80;43.00;;;;;;4966075;28;20538;-71
2021/08/02 12:30:56;;;;;;;3.42;0.90;;;28.60;42.90;;;;;;4968080;28;20209;-72
2021/08/02 12:33:24;;;;;;;3.95;0.90;;;28.60;43.00;;;;;;4963443;28;20212;-70
2021/08/02 12:35:52;;;;;;;2.22;0.98;;;28.40;43.10;;;;;;4965702;28;20307;-71
2021/08/02 12:38:18;;;;;;;3.70;0.90;;;28.30;43.40;;;;;;4966664;28;20243;-73
2021/08/02 12:40:46;;;;;;;2.15;0.80;;;28.50;44.00;;;;;;4967485;28;20200;-76
2021/08/02 12:43:12;;;;;;;2.47;0.77;;;28.90;43.70;;;;;;4969053;28;20201;-71
2021/08/02 12:45:39;;;;;;;3.38;1.05;;;29.10;43.30;;;;;;4973359;28;20269;-73
2021/08/02 12:48:09;;;;;;;3.47;0.98;;;29.20;42.60;;;;;;4968607;28;20210;-68
2021/08/02 12:50:37;;;;;;;7.78;1.05;;;29.00;43.00;;;;;;4970449;28;20201;-73
2021/08/02 12:53:04;;;;;;;4.38;0.90;;;28.80;43.80;;;;;;4972225;28;20267;-72
2021/08/02 12:55:31;;;;;;;2.13;0.85;;;28.60;44.10;;;;;;4970976;28;20201;-72